sensor_id;sensor_type;location;lat;lon;timestamp;P1;durP1;ratioP1;P2;durP2;ratioP2
297;SDS011;133;49.626;9.680;2023-07-29T00:01:49;6.33;;;5.97;;
297;SDS011;133;49.626;9.680;2023-07-29T00:04:16;8.57;;;6.73;;
297;SDS011;133;49.626;9.680;2023-07-29T00:06:41;6.60;;;6.20;;
297;SDS011;133;49.626;9.680;2023-07-29T00:09:07;11.30;;;7.07;;
297;SDS011;133;49.626;9.680;2023-07-29T00:11:33;7.77;;;7.37;;
297;SDS011;133;49.626;9.680;2023-07-29T00:13:59;10.40;;;7.60;;
297;SDS011;133;49.626;9.680;2023-07-29T00:16:26;7.00;;;6.63;;
297;SDS011;133;49.626;9.680;2023-07-29T00:18:51;7.57;;;7.20;;
297;SDS011;133;49.626;9.680;2023-07-29T00:21:17;7.07;;;6.70;;
297;SDS011;133;49.626;9.680;2023-07-29T00:23:42;6.60;;;6.20;;
297;SDS011;133;49.626;9.680;2023-07-29T00:26:08;8.43;;;7.53;;
297;SDS011;133;49.626;9.680;2023-07-29T00:28:34;6.80;;;6.20;;
297;SDS011;133;49.626;9.680;2023-07-29T00:30:59;8.17;;;6.73;;
297;SDS011;133;49.626;9.680;2023-07-29T00:33:25;6.73;;;5.47;;
297;SDS011;133;49.626;9.680;2023-07-29T00:35:50;6.27;;;5.93;;
297;SDS011;133;49.626;9.680;2023-07-29T00:38:16;6.27;;;5.93;;
297;SDS011;133;49.626;9.680;2023-07-29T00:40:42;6.07;;;5.37;;
297;SDS011;133;49.626;9.680;2023-07-29T00:43:08;5.63;;;5.33;;
297;SDS011;133;49.626;9.680;2023-07-29T00:45:33;5.50;;;5.20;;
297;SDS011;133;49.626;9.680;2023-07-29T00:47:59;6.27;;;5.80;;
297;SDS011;133;49.626;9.680;2023-07-29T00:50:26;4.80;;;4.50;;
297;SDS011;133;49.626;9.680;2023-07-29T00:52:53;5.23;;;4.90;;
297;SDS011;133;49.626;9.680;2023-07-29T00:55:19;5.37;;;5.07;;
297;SDS011;133;49.626;9.680;2023-07-29T00:57:45;4.67;;;4.37;;
297;SDS011;133;49.626;9.680;2023-07-29T01:00:13;3.87;;;3.67;;
297;SDS011;133;49.626;9.680;2023-07-29T01:02:41;4.53;;;4.23;;
297;SDS011;133;49.626;9.680;2023-07-29T01:05:11;3.93;;;3.73;;
297;SDS011;133;49.626;9.680;2023-07-29T01:07:42;4.00;;;3.80;;
297;SDS011;133;49.626;9.680;2023-07-29T01:10:36;4.30;;;4.00;;
297;SDS011;133;49.626;9.680;2023-07-29T01:13:17;4.10;;;3.80;;
297;SDS011;133;49.626;9.680;2023-07-29T01:18:24;3.90;;;3.70;;
297;SDS011;133;49.626;9.680;2023-07-29T01:20:54;6.03;;;3.60;;
297;SDS011;133;49.626;9.680;2023-07-29T01:23:24;3.73;;;3.53;;
297;SDS011;133;49.626;9.680;2023-07-29T01:25:50;4.00;;;3.67;;
297;SDS011;133;49.626;9.680;2023-07-29T01:28:16;4.23;;;3.60;;
297;SDS011;133;49.626;9.680;2023-07-29T01:30:42;3.43;;;3.23;;
297;SDS011;133;49.626;9.680;2023-07-29T01:33:20;3.37;;;3.17;;
297;SDS011;133;49.626;9.680;2023-07-29T01:35:58;3.30;;;3.10;;
297;SDS011;133;49.626;9.680;2023-07-29T01:38:36;4.27;;;3.80;;
297;SDS011;133;49.626;9.680;2023-07-29T01:41:06;3.90;;;3.10;;
297;SDS011;133;49.626;9.680;2023-07-29T01:43:33;3.50;;;3.30;;
297;SDS011;133;49.626;9.680;2023-07-29T01:46:02;3.33;;;3.13;;
297;SDS011;133;49.626;9.680;2023-07-29T01:48:28;3.40;;;3.20;;
297;SDS011;133;49.626;9.680;2023-07-29T01:50:55;3.90;;;3.70;;
297;SDS011;133;49.626;9.680;2023-07-29T01:53:21;5.60;;;3.20;;
297;SDS011;133;49.626;9.680;2023-07-29T01:55:46;7.63;;;3.80;;
297;SDS011;133;49.626;9.680;2023-07-29T01:58:12;3.70;;;3.23;;
297;SDS011;133;49.626;9.680;2023-07-29T02:00:39;4.87;;;3.50;;
297;SDS011;133;49.626;9.680;2023-07-29T02:03:05;3.13;;;2.93;;
297;SDS011;133;49.626;9.680;2023-07-29T02:05:30;4.00;;;3.30;;
297;SDS011;133;49.626;9.680;2023-07-29T02:07:56;5.00;;;3.27;;
297;SDS011;133;49.626;9.680;2023-07-29T02:10:22;6.80;;;3.50;;
297;SDS011;133;49.626;9.680;2023-07-29T02:12:47;3.13;;;2.93;;
297;SDS011;133;49.626;9.680;2023-07-29T02:15:13;3.37;;;3.17;;
297;SDS011;133;49.626;9.680;2023-07-29T02:17:40;4.60;;;3.50;;
297;SDS011;133;49.626;9.680;2023-07-29T02:20:06;3.00;;;2.80;;
297;SDS011;133;49.626;9.680;2023-07-29T02:22:33;4.80;;;2.93;;
297;SDS011;133;49.626;9.680;2023-07-29T02:24:59;3.20;;;3.00;;
297;SDS011;133;49.626;9.680;2023-07-29T02:27:24;3.20;;;3.00;;
297;SDS011;133;49.626;9.680;2023-07-29T02:29:52;3.43;;;3.20;;
297;SDS011;133;49.626;9.680;2023-07-29T02:32:18;3.33;;;3.13;;
297;SDS011;133;49.626;9.680;2023-07-29T02:34:44;2.93;;;2.73;;
297;SDS011;133;49.626;9.680;2023-07-29T02:37:10;3.43;;;3.00;;
297;SDS011;133;49.626;9.680;2023-07-29T02:39:36;3.17;;;2.67;;
297;SDS011;133;49.626;9.680;2023-07-29T02:42:02;3.10;;;2.90;;
297;SDS011;133;49.626;9.680;2023-07-29T02:44:28;7.67;;;2.90;;
297;SDS011;133;49.626;9.680;2023-07-29T02:46:53;3.80;;;3.17;;
297;SDS011;133;49.626;9.680;2023-07-29T02:49:21;3.07;;;2.90;;
297;SDS011;133;49.626;9.680;2023-07-29T02:51:48;3.57;;;3.00;;
297;SDS011;133;49.626;9.680;2023-07-29T02:54:13;3.20;;;3.00;;
297;SDS011;133;49.626;9.680;2023-07-29T02:56:39;3.70;;;3.50;;
297;SDS011;133;49.626;9.680;2023-07-29T02:59:04;4.90;;;3.10;;
297;SDS011;133;49.626;9.680;2023-07-29T03:01:30;5.60;;;3.50;;
297;SDS011;133;49.626;9.680;2023-07-29T03:03:56;7.90;;;3.67;;
297;SDS011;133;49.626;9.680;2023-07-29T03:06:22;4.27;;;3.57;;
297;SDS011;133;49.626;9.680;2023-07-29T03:08:47;7.30;;;4.60;;
297;SDS011;133;49.626;9.680;2023-07-29T03:11:14;4.57;;;3.90;;
297;SDS011;133;49.626;9.680;2023-07-29T03:13:40;5.53;;;4.00;;
297;SDS011;133;49.626;9.680;2023-07-29T03:18:36;7.30;;;4.47;;
297;SDS011;133;49.626;9.680;2023-07-29T03:21:02;4.37;;;4.07;;
297;SDS011;133;49.626;9.680;2023-07-29T03:23:28;4.97;;;4.13;;
297;SDS011;133;49.626;9.680;2023-07-29T03:25:55;5.10;;;4.57;;
297;SDS011;133;49.626;9.680;2023-07-29T03:28:23;4.80;;;4.00;;
297;SDS011;133;49.626;9.680;2023-07-29T03:30:50;5.37;;;3.60;;
297;SDS011;133;49.626;9.680;2023-07-29T03:33:16;4.07;;;3.87;;
297;SDS011;133;49.626;9.680;2023-07-29T03:35:41;4.17;;;3.47;;
297;SDS011;133;49.626;9.680;2023-07-29T03:38:09;3.90;;;3.70;;
297;SDS011;133;49.626;9.680;2023-07-29T03:40:36;4.00;;;3.90;;
297;SDS011;133;49.626;9.680;2023-07-29T03:43:02;4.80;;;3.53;;
297;SDS011;133;49.626;9.680;2023-07-29T03:45:28;3.70;;;3.50;;
297;SDS011;133;49.626;9.680;2023-07-29T03:47:53;4.00;;;3.67;;
297;SDS011;133;49.626;9.680;2023-07-29T03:50:19;3.73;;;3.47;;
297;SDS011;133;49.626;9.680;2023-07-29T03:52:45;4.17;;;3.93;;
297;SDS011;133;49.626;9.680;2023-07-29T03:55:10;3.90;;;3.70;;
297;SDS011;133;49.626;9.680;2023-07-29T03:57:36;4.00;;;3.80;;
297;SDS011;133;49.626;9.680;2023-07-29T04:00:03;5.13;;;3.90;;
297;SDS011;133;49.626;9.680;2023-07-29T04:02:29;4.40;;;3.43;;
297;SDS011;133;49.626;9.680;2023-07-29T04:04:55;4.10;;;3.90;;
297;SDS011;133;49.626;9.680;2023-07-29T04:07:21;5.73;;;3.90;;
297;SDS011;133;49.626;9.680;2023-07-29T04:09:46;4.10;;;3.90;;
297;SDS011;133;49.626;9.680;2023-07-29T04:12:12;5.30;;;4.30;;
297;SDS011;133;49.626;9.680;2023-07-29T04:14:37;5.20;;;3.73;;
297;SDS011;133;49.626;9.680;2023-07-29T04:17:03;4.40;;;3.90;;
297;SDS011;133;49.626;9.680;2023-07-29T04:19:29;5.60;;;4.07;;
297;SDS011;133;49.626;9.680;2023-07-29T04:21:55;6.20;;;4.37;;
297;SDS011;133;49.626;9.680;2023-07-29T04:24:20;5.03;;;4.20;;
297;SDS011;133;49.626;9.680;2023-07-29T04:26:48;5.83;;;3.70;;
297;SDS011;133;49.626;9.680;2023-07-29T04:29:14;4.93;;;4.37;;
297;SDS011;133;49.626;9.680;2023-07-29T04:31:39;4.73;;;4.10;;
297;SDS011;133;49.626;9.680;2023-07-29T04:34:05;4.47;;;4.17;;
297;SDS011;133;49.626;9.680;2023-07-29T04:36:31;4.80;;;4.20;;
297;SDS011;133;49.626;9.680;2023-07-29T04:38:56;5.53;;;3.70;;
297;SDS011;133;49.626;9.680;2023-07-29T04:41:23;11.17;;;4.47;;
297;SDS011;133;49.626;9.680;2023-07-29T04:43:49;7.50;;;4.10;;
297;SDS011;133;49.626;9.680;2023-07-29T04:46:15;4.60;;;3.63;;
297;SDS011;133;49.626;9.680;2023-07-29T04:48:40;3.90;;;3.60;;
297;SDS011;133;49.626;9.680;2023-07-29T04:51:06;4.80;;;3.70;;
297;SDS011;133;49.626;9.680;2023-07-29T04:53:32;4.30;;;3.90;;
297;SDS011;133;49.626;9.680;2023-07-29T04:55:59;3.70;;;3.60;;
297;SDS011;133;49.626;9.680;2023-07-29T04:58:25;3.47;;;3.27;;
297;SDS011;133;49.626;9.680;2023-07-29T05:00:53;3.80;;;3.60;;
297;SDS011;133;49.626;9.680;2023-07-29T05:03:19;4.43;;;3.40;;
297;SDS011;133;49.626;9.680;2023-07-29T05:05:45;3.80;;;3.60;;
297;SDS011;133;49.626;9.680;2023-07-29T05:08:10;3.80;;;3.60;;
297;SDS011;133;49.626;9.680;2023-07-29T05:10:36;3.20;;;3.00;;
297;SDS011;133;49.626;9.680;2023-07-29T05:13:01;3.63;;;3.43;;
297;SDS011;133;49.626;9.680;2023-07-29T05:15:27;5.20;;;3.73;;
297;SDS011;133;49.626;9.680;2023-07-29T05:17:53;4.03;;;3.63;;
297;SDS011;133;49.626;9.680;2023-07-29T05:20:18;6.20;;;3.80;;
297;SDS011;133;49.626;9.680;2023-07-29T05:22:44;4.03;;;3.87;;
297;SDS011;133;49.626;9.680;2023-07-29T05:25:09;4.80;;;4.50;;
297;SDS011;133;49.626;9.680;2023-07-29T05:27:35;8.73;;;7.13;;
297;SDS011;133;49.626;9.680;2023-07-29T05:30:01;9.20;;;7.00;;
297;SDS011;133;49.626;9.680;2023-07-29T05:32:26;10.97;;;10.00;;
297;SDS011;133;49.626;9.680;2023-07-29T05:34:52;27.03;;;23.23;;
297;SDS011;133;49.626;9.680;2023-07-29T05:37:18;12.93;;;12.07;;
297;SDS011;133;49.626;9.680;2023-07-29T05:39:43;8.23;;;6.10;;
297;SDS011;133;49.626;9.680;2023-07-29T05:42:09;5.47;;;3.90;;
297;SDS011;133;49.626;9.680;2023-07-29T05:44:34;3.30;;;3.10;;
297;SDS011;133;49.626;9.680;2023-07-29T05:47:00;4.27;;;3.50;;
297;SDS011;133;49.626;9.680;2023-07-29T05:49:25;3.47;;;2.70;;
297;SDS011;133;49.626;9.680;2023-07-29T05:51:51;3.40;;;3.20;;
297;SDS011;133;49.626;9.680;2023-07-29T05:54:18;4.80;;;3.50;;
297;SDS011;133;49.626;9.680;2023-07-29T05:56:43;4.10;;;3.40;;
297;SDS011;133;49.626;9.680;2023-07-29T05:59:09;3.10;;;2.90;;
297;SDS011;133;49.626;9.680;2023-07-29T06:01:34;4.40;;;3.17;;
297;SDS011;133;49.626;9.680;2023-07-29T06:04:00;4.60;;;3.40;;
297;SDS011;133;49.626;9.680;2023-07-29T06:06:26;6.43;;;3.57;;
297;SDS011;133;49.626;9.680;2023-07-29T06:08:52;3.57;;;3.33;;
297;SDS011;133;49.626;9.680;2023-07-29T06:11:17;4.70;;;3.87;;
297;SDS011;133;49.626;9.680;2023-07-29T06:13:43;10.03;;;4.20;;
297;SDS011;133;49.626;9.680;2023-07-29T06:16:09;4.83;;;4.53;;
297;SDS011;133;49.626;9.680;2023-07-29T06:18:34;4.40;;;3.73;;
297;SDS011;133;49.626;9.680;2023-07-29T06:21:00;4.20;;;3.40;;
297;SDS011;133;49.626;9.680;2023-07-29T06:23:25;10.00;;;9.50;;
297;SDS011;133;49.626;9.680;2023-07-29T06:25:51;8.80;;;7.53;;
297;SDS011;133;49.626;9.680;2023-07-29T06:28:16;6.57;;;4.20;;
297;SDS011;133;49.626;9.680;2023-07-29T06:30:42;6.37;;;3.37;;
297;SDS011;133;49.626;9.680;2023-07-29T06:33:08;3.93;;;3.73;;
297;SDS011;133;49.626;9.680;2023-07-29T06:35:34;3.80;;;3.60;;
297;SDS011;133;49.626;9.680;2023-07-29T06:38:00;3.63;;;3.43;;
297;SDS011;133;49.626;9.680;2023-07-29T06:40:25;4.10;;;3.70;;
297;SDS011;133;49.626;9.680;2023-07-29T06:42:51;4.77;;;3.50;;
297;SDS011;133;49.626;9.680;2023-07-29T06:45:16;3.60;;;3.30;;
297;SDS011;133;49.626;9.680;2023-07-29T06:47:42;4.10;;;3.90;;
297;SDS011;133;49.626;9.680;2023-07-29T06:50:08;5.80;;;3.90;;
297;SDS011;133;49.626;9.680;2023-07-29T06:52:34;3.63;;;3.20;;
297;SDS011;133;49.626;9.680;2023-07-29T06:54:59;4.40;;;3.20;;
297;SDS011;133;49.626;9.680;2023-07-29T06:57:25;4.53;;;3.40;;
297;SDS011;133;49.626;9.680;2023-07-29T06:59:51;3.57;;;3.33;;
297;SDS011;133;49.626;9.680;2023-07-29T07:02:16;3.17;;;2.97;;
297;SDS011;133;49.626;9.680;2023-07-29T07:04:42;5.63;;;3.00;;
297;SDS011;133;49.626;9.680;2023-07-29T07:07:07;3.63;;;2.70;;
297;SDS011;133;49.626;9.680;2023-07-29T07:09:33;3.40;;;3.23;;
297;SDS011;133;49.626;9.680;2023-07-29T07:11:59;3.40;;;3.20;;
297;SDS011;133;49.626;9.680;2023-07-29T07:14:24;5.53;;;3.00;;
297;SDS011;133;49.626;9.680;2023-07-29T07:16:50;3.10;;;2.83;;
297;SDS011;133;49.626;9.680;2023-07-29T07:19:16;4.03;;;3.83;;
297;SDS011;133;49.626;9.680;2023-07-29T07:21:41;3.13;;;2.93;;
297;SDS011;133;49.626;9.680;2023-07-29T07:24:07;3.13;;;3.00;;
297;SDS011;133;49.626;9.680;2023-07-29T07:26:33;3.00;;;2.80;;
297;SDS011;133;49.626;9.680;2023-07-29T07:28:58;2.80;;;2.60;;
297;SDS011;133;49.626;9.680;2023-07-29T07:31:24;4.23;;;2.60;;
297;SDS011;133;49.626;9.680;2023-07-29T07:33:49;2.50;;;2.30;;
297;SDS011;133;49.626;9.680;2023-07-29T07:36:15;2.93;;;2.30;;
297;SDS011;133;49.626;9.680;2023-07-29T07:38:41;3.10;;;2.13;;
297;SDS011;133;49.626;9.680;2023-07-29T07:41:06;4.17;;;2.40;;
297;SDS011;133;49.626;9.680;2023-07-29T07:43:32;2.47;;;2.27;;
297;SDS011;133;49.626;9.680;2023-07-29T07:45:58;2.47;;;2.30;;
297;SDS011;133;49.626;9.680;2023-07-29T07:48:26;3.23;;;2.33;;
297;SDS011;133;49.626;9.680;2023-07-29T07:50:52;1.97;;;1.90;;
297;SDS011;133;49.626;9.680;2023-07-29T07:53:18;2.20;;;2.00;;
297;SDS011;133;49.626;9.680;2023-07-29T07:55:44;2.43;;;1.97;;
297;SDS011;133;49.626;9.680;2023-07-29T07:58:10;2.10;;;1.87;;
297;SDS011;133;49.626;9.680;2023-07-29T08:00:36;1.70;;;1.60;;
297;SDS011;133;49.626;9.680;2023-07-29T08:03:02;2.00;;;1.90;;
297;SDS011;133;49.626;9.680;2023-07-29T08:05:27;1.80;;;1.70;;
297;SDS011;133;49.626;9.680;2023-07-29T08:07:53;1.90;;;1.80;;
297;SDS011;133;49.626;9.680;2023-07-29T08:10:18;2.90;;;1.70;;
297;SDS011;133;49.626;9.680;2023-07-29T08:12:44;1.93;;;1.80;;
297;SDS011;133;49.626;9.680;2023-07-29T08:15:10;1.80;;;1.70;;
297;SDS011;133;49.626;9.680;2023-07-29T08:17:35;1.97;;;1.87;;
297;SDS011;133;49.626;9.680;2023-07-29T08:20:01;2.23;;;2.00;;
297;SDS011;133;49.626;9.680;2023-07-29T08:22:27;1.90;;;1.80;;
297;SDS011;133;49.626;9.680;2023-07-29T08:24:53;2.80;;;1.80;;
297;SDS011;133;49.626;9.680;2023-07-29T08:27:18;5.67;;;2.23;;
297;SDS011;133;49.626;9.680;2023-07-29T08:29:44;2.50;;;2.30;;
297;SDS011;133;49.626;9.680;2023-07-29T08:32:10;2.70;;;2.50;;
297;SDS011;133;49.626;9.680;2023-07-29T08:34:35;2.57;;;2.37;;
297;SDS011;133;49.626;9.680;2023-07-29T08:37:01;3.80;;;3.00;;
297;SDS011;133;49.626;9.680;2023-07-29T08:39:27;2.90;;;2.70;;
297;SDS011;133;49.626;9.680;2023-07-29T08:42:03;3.27;;;3.07;;
297;SDS011;133;49.626;9.680;2023-07-29T08:44:37;5.10;;;3.17;;
297;SDS011;133;49.626;9.680;2023-07-29T08:47:06;8.00;;;4.10;;
297;SDS011;133;49.626;9.680;2023-07-29T08:49:32;4.27;;;3.50;;
297;SDS011;133;49.626;9.680;2023-07-29T08:51:58;3.77;;;3.50;;
297;SDS011;133;49.626;9.680;2023-07-29T08:54:24;3.93;;;3.73;;
297;SDS011;133;49.626;9.680;2023-07-29T08:56:50;5.73;;;3.83;;
297;SDS011;133;49.626;9.680;2023-07-29T08:59:16;3.80;;;3.60;;
297;SDS011;133;49.626;9.680;2023-07-29T09:01:43;3.90;;;3.70;;
297;SDS011;133;49.626;9.680;2023-07-29T09:04:08;3.67;;;3.47;;
297;SDS011;133;49.626;9.680;2023-07-29T09:06:35;4.23;;;3.97;;
297;SDS011;133;49.626;9.680;2023-07-29T09:09:03;4.67;;;4.10;;
297;SDS011;133;49.626;9.680;2023-07-29T09:11:28;3.77;;;3.57;;
297;SDS011;133;49.626;9.680;2023-07-29T09:13:55;4.27;;;4.00;;
297;SDS011;133;49.626;9.680;2023-07-29T09:16:21;3.93;;;3.73;;
297;SDS011;133;49.626;9.680;2023-07-29T09:18:47;4.43;;;4.13;;
297;SDS011;133;49.626;9.680;2023-07-29T09:21:15;4.03;;;3.83;;
297;SDS011;133;49.626;9.680;2023-07-29T09:23:52;5.07;;;4.00;;
297;SDS011;133;49.626;9.680;2023-07-29T09:26:27;4.43;;;4.03;;
297;SDS011;133;49.626;9.680;2023-07-29T09:28:57;3.70;;;3.50;;
297;SDS011;133;49.626;9.680;2023-07-29T09:31:27;4.00;;;3.80;;
297;SDS011;133;49.626;9.680;2023-07-29T09:34:09;4.10;;;3.90;;
297;SDS011;133;49.626;9.680;2023-07-29T09:36:40;3.97;;;3.77;;
297;SDS011;133;49.626;9.680;2023-07-29T09:39:10;4.50;;;4.20;;
297;SDS011;133;49.626;9.680;2023-07-29T09:41:37;3.63;;;3.47;;
297;SDS011;133;49.626;9.680;2023-07-29T09:44:03;3.60;;;3.40;;
297;SDS011;133;49.626;9.680;2023-07-29T09:46:33;3.97;;;3.77;;
297;SDS011;133;49.626;9.680;2023-07-29T09:49:01;3.20;;;3.00;;
297;SDS011;133;49.626;9.680;2023-07-29T09:51:30;3.10;;;2.90;;
297;SDS011;133;49.626;9.680;2023-07-29T09:53:57;3.00;;;2.83;;
297;SDS011;133;49.626;9.680;2023-07-29T09:56:26;3.30;;;3.10;;
297;SDS011;133;49.626;9.680;2023-07-29T09:59:04;3.67;;;3.47;;
297;SDS011;133;49.626;9.680;2023-07-29T10:01:30;3.80;;;3.60;;
297;SDS011;133;49.626;9.680;2023-07-29T10:03:56;4.23;;;3.90;;
297;SDS011;133;49.626;9.680;2023-07-29T10:06:25;4.00;;;3.80;;
297;SDS011;133;49.626;9.680;2023-07-29T10:08:51;4.73;;;3.73;;
297;SDS011;133;49.626;9.680;2023-07-29T10:11:17;4.00;;;3.80;;
297;SDS011;133;49.626;9.680;2023-07-29T10:13:45;4.70;;;4.43;;
297;SDS011;133;49.626;9.680;2023-07-29T10:16:11;4.63;;;4.37;;
297;SDS011;133;49.626;9.680;2023-07-29T10:18:37;4.77;;;4.47;;
297;SDS011;133;49.626;9.680;2023-07-29T10:21:03;4.70;;;4.40;;
297;SDS011;133;49.626;9.680;2023-07-29T10:23:35;3.80;;;3.60;;
297;SDS011;133;49.626;9.680;2023-07-29T10:26:04;7.40;;;3.60;;
297;SDS011;133;49.626;9.680;2023-07-29T10:28:31;4.83;;;3.03;;
297;SDS011;133;49.626;9.680;2023-07-29T10:30:58;3.27;;;2.90;;
297;SDS011;133;49.626;9.680;2023-07-29T10:33:44;6.10;;;2.87;;
297;SDS011;133;49.626;9.680;2023-07-29T10:36:10;4.23;;;2.90;;
297;SDS011;133;49.626;9.680;2023-07-29T10:38:40;3.40;;;3.20;;
297;SDS011;133;49.626;9.680;2023-07-29T10:41:15;4.80;;;3.13;;
297;SDS011;133;49.626;9.680;2023-07-29T10:43:41;3.40;;;3.20;;
297;SDS011;133;49.626;9.680;2023-07-29T10:46:17;3.40;;;3.20;;
297;SDS011;133;49.626;9.680;2023-07-29T10:51:34;3.47;;;3.27;;
297;SDS011;133;49.626;9.680;2023-07-29T10:54:30;3.30;;;2.90;;
297;SDS011;133;49.626;9.680;2023-07-29T11:00:20;4.20;;;3.10;;
297;SDS011;133;49.626;9.680;2023-07-29T11:02:56;3.43;;;3.23;;
297;SDS011;133;49.626;9.680;2023-07-29T11:05:26;3.07;;;2.93;;
297;SDS011;133;49.626;9.680;2023-07-29T11:08:15;3.70;;;3.10;;
297;SDS011;133;49.626;9.680;2023-07-29T11:11:11;3.23;;;3.03;;
297;SDS011;133;49.626;9.680;2023-07-29T11:13:45;3.20;;;3.00;;
297;SDS011;133;49.626;9.680;2023-07-29T11:17:02;3.40;;;3.03;;
297;SDS011;133;49.626;9.680;2023-07-29T11:19:32;3.60;;;2.90;;
297;SDS011;133;49.626;9.680;2023-07-29T11:22:36;3.80;;;3.30;;
297;SDS011;133;49.626;9.680;2023-07-29T11:25:13;3.07;;;2.87;;
297;SDS011;133;49.626;9.680;2023-07-29T11:27:40;3.20;;;3.00;;
297;SDS011;133;49.626;9.680;2023-07-29T11:30:17;3.90;;;2.97;;
297;SDS011;133;49.626;9.680;2023-07-29T11:32:53;3.33;;;3.13;;
297;SDS011;133;49.626;9.680;2023-07-29T11:35:21;6.00;;;3.20;;
297;SDS011;133;49.626;9.680;2023-07-29T11:37:49;2.70;;;2.50;;
297;SDS011;133;49.626;9.680;2023-07-29T11:40:17;2.97;;;2.77;;
297;SDS011;133;49.626;9.680;2023-07-29T11:46:00;2.90;;;2.70;;
297;SDS011;133;49.626;9.680;2023-07-29T11:49:09;2.83;;;2.63;;
297;SDS011;133;49.626;9.680;2023-07-29T11:51:37;2.93;;;2.73;;
297;SDS011;133;49.626;9.680;2023-07-29T11:54:05;3.50;;;2.80;;
297;SDS011;133;49.626;9.680;2023-07-29T11:56:32;3.30;;;3.00;;
297;SDS011;133;49.626;9.680;2023-07-29T11:58:58;2.87;;;2.67;;
297;SDS011;133;49.626;9.680;2023-07-29T12:01:24;2.80;;;2.60;;
297;SDS011;133;49.626;9.680;2023-07-29T12:07:36;2.97;;;2.77;;
297;SDS011;133;49.626;9.680;2023-07-29T12:10:04;3.20;;;3.00;;
297;SDS011;133;49.626;9.680;2023-07-29T12:12:31;3.17;;;2.97;;
297;SDS011;133;49.626;9.680;2023-07-29T12:14:57;2.63;;;2.43;;
297;SDS011;133;49.626;9.680;2023-07-29T12:17:23;3.47;;;2.90;;
297;SDS011;133;49.626;9.680;2023-07-29T12:19:48;2.93;;;2.73;;
297;SDS011;133;49.626;9.680;2023-07-29T12:22:41;2.80;;;2.60;;
297;SDS011;133;49.626;9.680;2023-07-29T12:28:25;2.70;;;2.60;;
297;SDS011;133;49.626;9.680;2023-07-29T12:30:55;2.40;;;2.20;;
297;SDS011;133;49.626;9.680;2023-07-29T12:33:39;3.10;;;2.90;;
297;SDS011;133;49.626;9.680;2023-07-29T12:40:27;2.70;;;2.50;;
297;SDS011;133;49.626;9.680;2023-07-29T12:47:26;2.60;;;2.40;;
297;SDS011;133;49.626;9.680;2023-07-29T12:49:54;2.63;;;2.50;;
297;SDS011;133;49.626;9.680;2023-07-29T12:52:20;2.70;;;2.50;;
297;SDS011;133;49.626;9.680;2023-07-29T12:54:46;2.60;;;2.40;;
297;SDS011;133;49.626;9.680;2023-07-29T12:57:12;2.83;;;2.63;;
297;SDS011;133;49.626;9.680;2023-07-29T12:59:37;2.80;;;2.60;;
297;SDS011;133;49.626;9.680;2023-07-29T13:02:03;2.80;;;2.60;;
297;SDS011;133;49.626;9.680;2023-07-29T13:04:29;2.83;;;2.63;;
297;SDS011;133;49.626;9.680;2023-07-29T13:06:57;2.83;;;2.63;;
297;SDS011;133;49.626;9.680;2023-07-29T13:09:24;3.63;;;2.87;;
297;SDS011;133;49.626;9.680;2023-07-29T13:11:50;7.50;;;2.77;;
297;SDS011;133;49.626;9.680;2023-07-29T13:14:16;3.10;;;2.90;;
297;SDS011;133;49.626;9.680;2023-07-29T13:16:41;3.50;;;2.90;;
297;SDS011;133;49.626;9.680;2023-07-29T13:19:07;2.80;;;2.60;;
297;SDS011;133;49.626;9.680;2023-07-29T13:21:33;3.10;;;3.00;;
297;SDS011;133;49.626;9.680;2023-07-29T13:23:59;2.73;;;2.53;;
297;SDS011;133;49.626;9.680;2023-07-29T13:26:24;3.00;;;2.80;;
297;SDS011;133;49.626;9.680;2023-07-29T13:28:50;2.77;;;2.57;;
297;SDS011;133;49.626;9.680;2023-07-29T13:31:16;2.80;;;2.60;;
297;SDS011;133;49.626;9.680;2023-07-29T13:33:41;2.50;;;2.30;;
297;SDS011;133;49.626;9.680;2023-07-29T13:36:07;2.73;;;2.53;;
297;SDS011;133;49.626;9.680;2023-07-29T13:38:35;4.60;;;2.60;;
297;SDS011;133;49.626;9.680;2023-07-29T13:41:01;3.53;;;3.10;;
297;SDS011;133;49.626;9.680;2023-07-29T13:43:27;3.13;;;2.93;;
297;SDS011;133;49.626;9.680;2023-07-29T13:45:53;2.97;;;2.80;;
297;SDS011;133;49.626;9.680;2023-07-29T13:48:19;2.70;;;2.50;;
297;SDS011;133;49.626;9.680;2023-07-29T13:50:45;3.10;;;2.70;;
297;SDS011;133;49.626;9.680;2023-07-29T13:53:10;4.33;;;2.97;;
297;SDS011;133;49.626;9.680;2023-07-29T13:55:36;2.80;;;2.60;;
297;SDS011;133;49.626;9.680;2023-07-29T13:58:02;3.20;;;2.80;;
297;SDS011;133;49.626;9.680;2023-07-29T14:00:28;6.93;;;2.77;;
297;SDS011;133;49.626;9.680;2023-07-29T14:02:53;6.03;;;2.50;;
297;SDS011;133;49.626;9.680;2023-07-29T14:05:19;3.23;;;3.03;;
297;SDS011;133;49.626;9.680;2023-07-29T14:07:57;2.80;;;2.60;;
297;SDS011;133;49.626;9.680;2023-07-29T14:10:22;4.53;;;3.07;;
297;SDS011;133;49.626;9.680;2023-07-29T14:12:49;3.80;;;3.23;;
297;SDS011;133;49.626;9.680;2023-07-29T14:15:15;2.90;;;2.70;;
297;SDS011;133;49.626;9.680;2023-07-29T14:17:41;3.03;;;2.50;;
297;SDS011;133;49.626;9.680;2023-07-29T14:20:06;4.10;;;2.70;;
297;SDS011;133;49.626;9.680;2023-07-29T14:22:32;3.10;;;2.90;;
297;SDS011;133;49.626;9.680;2023-07-29T14:24:58;2.93;;;2.73;;
297;SDS011;133;49.626;9.680;2023-07-29T14:27:27;3.13;;;2.73;;
297;SDS011;133;49.626;9.680;2023-07-29T14:29:53;2.57;;;2.37;;
297;SDS011;133;49.626;9.680;2023-07-29T14:32:18;2.90;;;2.70;;
297;SDS011;133;49.626;9.680;2023-07-29T14:34:44;3.17;;;2.97;;
297;SDS011;133;49.626;9.680;2023-07-29T14:37:10;4.50;;;2.93;;
297;SDS011;133;49.626;9.680;2023-07-29T14:39:35;4.10;;;2.80;;
297;SDS011;133;49.626;9.680;2023-07-29T14:42:02;3.17;;;2.87;;
297;SDS011;133;49.626;9.680;2023-07-29T14:47:46;3.37;;;3.17;;
297;SDS011;133;49.626;9.680;2023-07-29T14:50:12;5.53;;;3.23;;
297;SDS011;133;49.626;9.680;2023-07-29T14:52:38;3.03;;;2.83;;
297;SDS011;133;49.626;9.680;2023-07-29T14:55:04;5.17;;;3.00;;
297;SDS011;133;49.626;9.680;2023-07-29T14:57:30;3.10;;;2.90;;
297;SDS011;133;49.626;9.680;2023-07-29T14:59:55;3.07;;;2.87;;
297;SDS011;133;49.626;9.680;2023-07-29T15:02:21;3.70;;;2.83;;
297;SDS011;133;49.626;9.680;2023-07-29T15:05:06;4.97;;;3.00;;
297;SDS011;133;49.626;9.680;2023-07-29T15:07:32;2.93;;;2.77;;
297;SDS011;133;49.626;9.680;2023-07-29T15:09:58;3.40;;;2.60;;
297;SDS011;133;49.626;9.680;2023-07-29T15:12:24;2.97;;;2.77;;
297;SDS011;133;49.626;9.680;2023-07-29T15:15:11;5.67;;;2.67;;
297;SDS011;133;49.626;9.680;2023-07-29T15:17:36;3.17;;;3.00;;
297;SDS011;133;49.626;9.680;2023-07-29T15:20:02;3.00;;;2.80;;
297;SDS011;133;49.626;9.680;2023-07-29T15:22:29;4.93;;;2.70;;
297;SDS011;133;49.626;9.680;2023-07-29T15:24:56;2.70;;;2.50;;
297;SDS011;133;49.626;9.680;2023-07-29T15:27:23;2.90;;;2.70;;
297;SDS011;133;49.626;9.680;2023-07-29T15:29:49;3.30;;;3.00;;
297;SDS011;133;49.626;9.680;2023-07-29T15:32:15;2.57;;;2.40;;
297;SDS011;133;49.626;9.680;2023-07-29T15:34:40;3.17;;;2.97;;
297;SDS011;133;49.626;9.680;2023-07-29T15:37:06;5.30;;;2.90;;
297;SDS011;133;49.626;9.680;2023-07-29T15:39:31;2.90;;;2.70;;
297;SDS011;133;49.626;9.680;2023-07-29T15:42:00;2.73;;;2.57;;
297;SDS011;133;49.626;9.680;2023-07-29T15:44:25;6.00;;;3.53;;
297;SDS011;133;49.626;9.680;2023-07-29T15:46:51;2.80;;;2.60;;
297;SDS011;133;49.626;9.680;2023-07-29T15:49:17;3.60;;;3.30;;
297;SDS011;133;49.626;9.680;2023-07-29T15:51:43;2.97;;;2.77;;
297;SDS011;133;49.626;9.680;2023-07-29T15:54:09;3.23;;;3.03;;
297;SDS011;133;49.626;9.680;2023-07-29T15:56:34;3.07;;;2.87;;
297;SDS011;133;49.626;9.680;2023-07-29T15:59:03;2.93;;;2.73;;
297;SDS011;133;49.626;9.680;2023-07-29T16:01:29;3.10;;;2.90;;
297;SDS011;133;49.626;9.680;2023-07-29T16:03:55;4.70;;;2.87;;
297;SDS011;133;49.626;9.680;2023-07-29T16:06:21;4.13;;;2.90;;
297;SDS011;133;49.626;9.680;2023-07-29T16:08:49;3.03;;;2.77;;
297;SDS011;133;49.626;9.680;2023-07-29T16:11:14;3.40;;;2.97;;
297;SDS011;133;49.626;9.680;2023-07-29T16:13:40;2.97;;;2.60;;
297;SDS011;133;49.626;9.680;2023-07-29T16:16:06;3.23;;;3.03;;
297;SDS011;133;49.626;9.680;2023-07-29T16:18:32;2.90;;;2.70;;
297;SDS011;133;49.626;9.680;2023-07-29T16:20:57;3.07;;;2.60;;